sensor_id;sensor_type;location;lat;lon;timestamp;pressure;altitude;pressure_sealevel;temperature;humidity
71239;BME280;61342;51.442;7.370;2022-10-22T00:00:47;99493.59;;;16.75;84.61
71239;BME280;61342;51.442;7.370;2022-10-22T00:01:47;99499.97;;;16.73;85.26
71239;BME280;61342;51.442;7.370;2022-10-22T00:02:47;99502.69;;;16.72;85.27
71239;BME280;61342;51.442;7.370;2022-10-22T00:03:48;99496.53;;;16.68;85.25
71239;BME280;61342;51.442;7.370;2022-10-22T00:04:49;99499.59;;;16.70;85.57
71239;BME280;61342;51.442;7.370;2022-10-22T00:05:49;99501.75;;;16.69;85.55
71239;BME280;61342;51.442;7.370;2022-10-22T00:06:50;99495.59;;;16.65;85.18
71239;BME280;61342;51.442;7.370;2022-10-22T00:07:50;99499.25;;;16.66;85.31
71239;BME280;61342;51.442;7.370;2022-10-22T00:08:51;99498.28;;;16.63;85.24
71239;BME280;61342;51.442;7.370;2022-10-22T00:09:51;99496.78;;;16.62;85.31
71239;BME280;61342;51.442;7.370;2022-10-22T00:10:52;99499.47;;;16.60;85.47
71239;BME280;61342;51.442;7.370;2022-10-22T00:11:52;99501.78;;;16.62;85.79
71239;BME280;61342;51.442;7.370;2022-10-22T00:12:52;99497.94;;;16.59;85.65
71239;BME280;61342;51.442;7.370;2022-10-22T00:13:52;99508.53;;;16.64;85.78
71239;BME280;61342;51.442;7.370;2022-10-22T00:14:53;99494.81;;;16.65;85.96
71239;BME280;61342;51.442;7.370;2022-10-22T00:15:53;99501.34;;;16.73;86.38
71239;BME280;61342;51.442;7.370;2022-10-22T00:16:53;99499.75;;;16.79;86.04
71239;BME280;61342;51.442;7.370;2022-10-22T00:17:55;99505.50;;;16.86;85.86
71239;BME280;61342;51.442;7.370;2022-10-22T00:18:55;99501.00;;;16.93;85.73
71239;BME280;61342;51.442;7.370;2022-10-22T00:19:56;99508.69;;;16.98;85.55
71239;BME280;61342;51.442;7.370;2022-10-22T00:20:56;99507.69;;;17.03;85.83
71239;BME280;61342;51.442;7.370;2022-10-22T00:21:56;99510.00;;;17.04;85.34
71239;BME280;61342;51.442;7.370;2022-10-22T00:22:57;99505.50;;;17.11;85.52
71239;BME280;61342;51.442;7.370;2022-10-22T00:23:57;99514.22;;;17.11;84.82
71239;BME280;61342;51.442;7.370;2022-10-22T00:24:58;99512.25;;;17.13;84.88
71239;BME280;61342;51.442;7.370;2022-10-22T00:25:58;99515.16;;;17.13;85.02
71239;BME280;61342;51.442;7.370;2022-10-22T00:26:58;99520.03;;;17.11;84.97
71239;BME280;61342;51.442;7.370;2022-10-22T00:27:59;99521.38;;;17.10;84.64
71239;BME280;61342;51.442;7.370;2022-10-22T00:28:59;99524.28;;;17.10;84.76
71239;BME280;61342;51.442;7.370;2022-10-22T00:29:59;99522.38;;;17.05;84.95
71239;BME280;61342;51.442;7.370;2022-10-22T00:31:00;99529.75;;;17.06;84.32
71239;BME280;61342;51.442;7.370;2022-10-22T00:32:01;99528.78;;;17.03;84.80
71239;BME280;61342;51.442;7.370;2022-10-22T00:33:02;99528.78;;;17.03;84.78
71239;BME280;61342;51.442;7.370;2022-10-22T00:34:02;99523.22;;;16.98;84.40
71239;BME280;61342;51.442;7.370;2022-10-22T00:35:03;99529.78;;;16.98;84.96
71239;BME280;61342;51.442;7.370;2022-10-22T00:36:04;99523.03;;;16.96;85.03
71239;BME280;61342;51.442;7.370;2022-10-22T00:37:04;99521.31;;;16.93;85.20
71239;BME280;61342;51.442;7.370;2022-10-22T00:38:05;99513.78;;;16.90;84.97
71239;BME280;61342;51.442;7.370;2022-10-22T00:39:05;99510.53;;;16.86;85.14
71239;BME280;61342;51.442;7.370;2022-10-22T00:40:06;99516.34;;;16.86;85.14
71239;BME280;61342;51.442;7.370;2022-10-22T00:41:07;99525.06;;;16.86;85.01
71239;BME280;61342;51.442;7.370;2022-10-22T00:42:23;99523.50;;;16.85;85.28
71239;BME280;61342;51.442;7.370;2022-10-22T00:43:23;99520.44;;;16.83;85.47
71239;BME280;61342;51.442;7.370;2022-10-22T00:46:01;99516.03;;;16.74;85.43
71239;BME280;61342;51.442;7.370;2022-10-22T00:47:02;99526.88;;;16.74;85.77
71239;BME280;61342;51.442;7.370;2022-10-22T00:49:05;99520.88;;;16.72;85.64
71239;BME280;61342;51.442;7.370;2022-10-22T00:50:25;99526.16;;;16.66;85.98
71239;BME280;61342;51.442;7.370;2022-10-22T00:51:30;99526.31;;;16.68;85.92
71239;BME280;61342;51.442;7.370;2022-10-22T00:52:31;99522.66;;;16.68;86.57
71239;BME280;61342;51.442;7.370;2022-10-22T00:53:37;99525.56;;;16.68;86.20
71239;BME280;61342;51.442;7.370;2022-10-22T00:54:40;99518.16;;;16.74;86.21
71239;BME280;61342;51.442;7.370;2022-10-22T00:55:42;99528.78;;;16.79;86.64
71239;BME280;61342;51.442;7.370;2022-10-22T00:56:44;99523.34;;;16.83;86.67
71239;BME280;61342;51.442;7.370;2022-10-22T00:57:46;99520.97;;;16.89;86.45
71239;BME280;61342;51.442;7.370;2022-10-22T00:58:50;99515.69;;;16.95;86.57
71239;BME280;61342;51.442;7.370;2022-10-22T00:59:51;99520.84;;;17.04;85.92
71239;BME280;61342;51.442;7.370;2022-10-22T01:00:52;99519.06;;;17.08;85.79
71239;BME280;61342;51.442;7.370;2022-10-22T01:01:53;99510.72;;;17.12;86.03
71239;BME280;61342;51.442;7.370;2022-10-22T01:02:54;99513.03;;;17.14;85.65
71239;BME280;61342;51.442;7.370;2022-10-22T01:03:55;99513.22;;;17.16;85.10
71239;BME280;61342;51.442;7.370;2022-10-22T01:04:55;99513.97;;;17.16;85.24
71239;BME280;61342;51.442;7.370;2022-10-22T01:05:57;99511.06;;;17.16;84.94
71239;BME280;61342;51.442;7.370;2022-10-22T01:06:58;99510.31;;;17.16;85.27
71239;BME280;61342;51.442;7.370;2022-10-22T01:07:59;99507.81;;;17.12;85.07
71239;BME280;61342;51.442;7.370;2022-10-22T01:15:21;99505.44;;;16.94;84.89
71239;BME280;61342;51.442;7.370;2022-10-22T01:16:35;99513.19;;;16.91;85.39
71239;BME280;61342;51.442;7.370;2022-10-22T01:18:05;99514.78;;;16.85;85.04
71239;BME280;61342;51.442;7.370;2022-10-22T01:19:46;99508.63;;;16.81;85.11
71239;BME280;61342;51.442;7.370;2022-10-22T01:22:36;99496.31;;;16.73;85.73
71239;BME280;61342;51.442;7.370;2022-10-22T01:24:58;99504.44;;;16.67;85.54
71239;BME280;61342;51.442;7.370;2022-10-22T01:26:28;99500.03;;;16.66;85.72
71239;BME280;61342;51.442;7.370;2022-10-22T01:27:43;99493.88;;;16.62;85.81
71239;BME280;61342;51.442;7.370;2022-10-22T01:30:02;99487.09;;;16.60;85.93
71239;BME280;61342;51.442;7.370;2022-10-22T01:31:03;99497.16;;;16.59;86.10
71239;BME280;61342;51.442;7.370;2022-10-22T01:32:21;99488.69;;;16.53;86.48
71239;BME280;61342;51.442;7.370;2022-10-22T01:33:22;99495.63;;;16.58;86.47
71239;BME280;61342;51.442;7.370;2022-10-22T01:34:24;99491.97;;;16.57;86.81
71239;BME280;61342;51.442;7.370;2022-10-22T01:35:30;99505.63;;;16.64;86.96
71239;BME280;61342;51.442;7.370;2022-10-22T01:36:34;99496.69;;;16.70;86.74
71239;BME280;61342;51.442;7.370;2022-10-22T01:37:57;99492.03;;;16.74;86.71
71239;BME280;61342;51.442;7.370;2022-10-22T01:39:00;99499.50;;;16.84;87.20
71239;BME280;61342;51.442;7.370;2022-10-22T01:40:02;99504.28;;;16.89;86.79
71239;BME280;61342;51.442;7.370;2022-10-22T01:41:03;99495.53;;;16.97;86.49
71239;BME280;61342;51.442;7.370;2022-10-22T01:42:03;99489.13;;;16.98;86.31
71239;BME280;61342;51.442;7.370;2022-10-22T01:43:06;99492.59;;;17.04;86.07
71239;BME280;61342;51.442;7.370;2022-10-22T01:45:29;99493.53;;;17.07;86.04
71239;BME280;61342;51.442;7.370;2022-10-22T01:46:31;99492.94;;;17.08;85.89
71239;BME280;61342;51.442;7.370;2022-10-22T01:49:16;99484.47;;;17.03;85.64
71239;BME280;61342;51.442;7.370;2022-10-22T01:51:56;99476.16;;;16.99;85.54
71239;BME280;61342;51.442;7.370;2022-10-22T01:54:24;99471.94;;;16.93;85.80
71239;BME280;61342;51.442;7.370;2022-10-22T01:58:19;99460.47;;;16.78;86.12
71239;BME280;61342;51.442;7.370;2022-10-22T01:59:52;99463.38;;;16.78;86.17
71239;BME280;61342;51.442;7.370;2022-10-22T02:01:05;99471.88;;;16.76;86.20
71239;BME280;61342;51.442;7.370;2022-10-22T02:03:32;99464.22;;;16.71;86.27
71239;BME280;61342;51.442;7.370;2022-10-22T02:05:48;99467.31;;;16.66;86.18
71239;BME280;61342;51.442;7.370;2022-10-22T02:06:52;99463.47;;;16.63;86.38
71239;BME280;61342;51.442;7.370;2022-10-22T02:08:00;99464.84;;;16.62;86.64
71239;BME280;61342;51.442;7.370;2022-10-22T02:09:02;99469.25;;;16.63;86.79
71239;BME280;61342;51.442;7.370;2022-10-22T02:10:04;99458.09;;;16.60;86.55
71239;BME280;61342;51.442;7.370;2022-10-22T02:11:06;99471.25;;;16.61;86.62
71239;BME280;61342;51.442;7.370;2022-10-22T02:12:07;99470.88;;;16.57;86.75
71239;BME280;61342;51.442;7.370;2022-10-22T02:13:32;99467.38;;;16.58;87.11
71239;BME280;61342;51.442;7.370;2022-10-22T02:14:33;99477.44;;;16.57;86.96
71239;BME280;61342;51.442;7.370;2022-10-22T02:15:37;99471.06;;;16.59;87.07
71239;BME280;61342;51.442;7.370;2022-10-22T02:16:43;99469.69;;;16.60;87.17
71239;BME280;61342;51.442;7.370;2022-10-22T02:17:45;99463.06;;;16.67;87.56
71239;BME280;61342;51.442;7.370;2022-10-22T02:18:49;99464.56;;;16.75;87.32
71239;BME280;61342;51.442;7.370;2022-10-22T02:19:58;99473.03;;;16.80;87.19
71239;BME280;61342;51.442;7.370;2022-10-22T02:21:00;99472.19;;;16.87;87.70
71239;BME280;61342;51.442;7.370;2022-10-22T02:22:02;99478.72;;;16.95;87.09
71239;BME280;61342;51.442;7.370;2022-10-22T02:23:03;99473.25;;;16.99;86.97
71239;BME280;61342;51.442;7.370;2022-10-22T02:24:04;99476.50;;;17.03;86.73
71239;BME280;61342;51.442;7.370;2022-10-22T02:25:05;99468.16;;;17.07;86.87
71239;BME280;61342;51.442;7.370;2022-10-22T02:26:18;99479.19;;;17.09;86.54
71239;BME280;61342;51.442;7.370;2022-10-22T02:27:29;99490.78;;;17.09;85.98
71239;BME280;61342;51.442;7.370;2022-10-22T02:28:37;99477.63;;;17.08;86.17
71239;BME280;61342;51.442;7.370;2022-10-22T02:30:52;99480.19;;;17.04;85.91
71239;BME280;61342;51.442;7.370;2022-10-22T02:31:57;99486.59;;;17.02;86.10
71239;BME280;61342;51.442;7.370;2022-10-22T02:33:18;99479.47;;;16.96;85.83
71239;BME280;61342;51.442;7.370;2022-10-22T02:34:23;99480.25;;;16.96;85.96
71239;BME280;61342;51.442;7.370;2022-10-22T02:35:27;99477.94;;;16.95;85.86
71239;BME280;61342;51.442;7.370;2022-10-22T02:36:28;99484.91;;;16.92;86.00
71239;BME280;61342;51.442;7.370;2022-10-22T02:37:29;99491.53;;;16.92;85.88
71239;BME280;61342;51.442;7.370;2022-10-22T02:38:29;99493.47;;;16.90;85.93
71239;BME280;61342;51.442;7.370;2022-10-22T02:39:32;99482.09;;;16.84;85.92
71239;BME280;61342;51.442;7.370;2022-10-22T02:40:33;99484.22;;;16.84;86.08
71239;BME280;61342;51.442;7.370;2022-10-22T02:41:33;99478.84;;;16.80;86.06
71239;BME280;61342;51.442;7.370;2022-10-22T02:42:35;99486.16;;;16.81;86.47
71239;BME280;61342;51.442;7.370;2022-10-22T02:43:44;99490.09;;;16.76;86.11
71239;BME280;61342;51.442;7.370;2022-10-22T02:44:47;99492.03;;;16.74;86.43
71239;BME280;61342;51.442;7.370;2022-10-22T02:45:48;99488.53;;;16.75;86.26
71239;BME280;61342;51.442;7.370;2022-10-22T02:46:49;99492.63;;;16.73;86.56
71239;BME280;61342;51.442;7.370;2022-10-22T02:47:50;99494.75;;;16.72;86.60
71239;BME280;61342;51.442;7.370;2022-10-22T02:48:51;99487.22;;;16.69;86.33
71239;BME280;61342;51.442;7.370;2022-10-22T02:49:51;99499.59;;;16.70;86.81
71239;BME280;61342;51.442;7.370;2022-10-22T02:50:51;99490.53;;;16.66;86.91
71239;BME280;61342;51.442;7.370;2022-10-22T02:51:52;99489.78;;;16.65;87.05
71239;BME280;61342;51.442;7.370;2022-10-22T02:52:52;99479.00;;;16.58;87.13
71239;BME280;61342;51.442;7.370;2022-10-22T02:53:52;99500.44;;;16.63;86.78
71239;BME280;61342;51.442;7.370;2022-10-22T02:54:53;99496.56;;;16.60;86.82
71239;BME280;61342;51.442;7.370;2022-10-22T02:55:53;99496.56;;;16.60;87.26
71239;BME280;61342;51.442;7.370;2022-10-22T02:56:53;99499.66;;;16.62;87.28
71239;BME280;61342;51.442;7.370;2022-10-22T02:57:54;99503.28;;;16.70;87.11
71239;BME280;61342;51.442;7.370;2022-10-22T02:58:54;99490.69;;;16.75;87.66
71239;BME280;61342;51.442;7.370;2022-10-22T02:59:54;99492.56;;;16.80;87.65
71239;BME280;61342;51.442;7.370;2022-10-22T03:00:55;99497.56;;;16.87;87.32
71239;BME280;61342;51.442;7.370;2022-10-22T03:01:55;99495.03;;;16.91;86.85
71239;BME280;61342;51.442;7.370;2022-10-22T03:02:55;99496.31;;;16.97;86.56
71239;BME280;61342;51.442;7.370;2022-10-22T03:03:56;99495.72;;;16.99;86.78
71239;BME280;61342;51.442;7.370;2022-10-22T03:04:56;99496.84;;;17.03;86.47
71239;BME280;61342;51.442;7.370;2022-10-22T03:05:56;99502.66;;;17.03;86.09
71239;BME280;61342;51.442;7.370;2022-10-22T03:06:57;99499.16;;;17.05;86.29
71239;BME280;61342;51.442;7.370;2022-10-22T03:07:57;99494.69;;;17.04;85.94
71239;BME280;61342;51.442;7.370;2022-10-22T03:08:57;99496.09;;;17.03;85.72
71239;BME280;61342;51.442;7.370;2022-10-22T03:09:58;99493.19;;;17.03;85.62
71239;BME280;61342;51.442;7.370;2022-10-22T03:10:58;99501.69;;;17.01;85.62
71239;BME280;61342;51.442;7.370;2022-10-22T03:11:58;99495.72;;;16.99;85.92
71239;BME280;61342;51.442;7.370;2022-10-22T03:12:59;99496.91;;;16.96;85.85
71239;BME280;61342;51.442;7.370;2022-10-22T03:13:59;99498.88;;;16.93;85.72
71239;BME280;61342;51.442;7.370;2022-10-22T03:15:00;99504.50;;;16.91;85.73
71239;BME280;61342;51.442;7.370;2022-10-22T03:16:00;99513.00;;;16.89;85.72
71239;BME280;61342;51.442;7.370;2022-10-22T03:17:00;99503.78;;;16.83;86.05
71239;BME280;61342;51.442;7.370;2022-10-22T03:18:01;99507.44;;;16.84;86.41
71239;BME280;61342;51.442;7.370;2022-10-22T03:19:02;99502.81;;;16.81;86.03
71239;BME280;61342;51.442;7.370;2022-10-22T03:20:02;99506.13;;;16.77;86.00
71239;BME280;61342;51.442;7.370;2022-10-22T03:21:09;99513.91;;;16.75;86.03
71239;BME280;61342;51.442;7.370;2022-10-22T03:22:15;99511.41;;;16.72;86.44
71239;BME280;61342;51.442;7.370;2022-10-22T03:23:18;99513.34;;;16.69;86.36
71239;BME280;61342;51.442;7.370;2022-10-22T03:24:28;99516.06;;;16.67;86.48
71239;BME280;61342;51.442;7.370;2022-10-22T03:25:29;99519.56;;;16.66;86.88
71239;BME280;61342;51.442;7.370;2022-10-22T03:26:33;99515.69;;;16.63;86.75
71239;BME280;61342;51.442;7.370;2022-10-22T03:27:35;99513.81;;;16.58;87.08
71239;BME280;61342;51.442;7.370;2022-10-22T03:28:37;99505.88;;;16.59;87.10
71239;BME280;61342;51.442;7.370;2022-10-22T03:29:40;99501.44;;;16.58;86.87
71239;BME280;61342;51.442;7.370;2022-10-22T03:30:41;99503.38;;;16.55;87.35
71239;BME280;61342;51.442;7.370;2022-10-22T03:31:42;99512.66;;;16.54;87.21
71239;BME280;61342;51.442;7.370;2022-10-22T03:32:42;99505.34;;;16.53;87.45
71239;BME280;61342;51.442;7.370;2022-10-22T03:33:43;99505.34;;;16.53;87.52
71239;BME280;61342;51.442;7.370;2022-10-22T03:34:43;99497.19;;;16.51;87.31
71239;BME280;61342;51.442;7.370;2022-10-22T03:35:45;99506.47;;;16.57;87.93
71239;BME280;61342;51.442;7.370;2022-10-22T03:36:47;99509.72;;;16.61;88.12
71239;BME280;61342;51.442;7.370;2022-10-22T03:37:48;99515.31;;;16.67;87.67
71239;BME280;61342;51.442;7.370;2022-10-22T03:38:49;99509.25;;;16.72;88.02
71239;BME280;61342;51.442;7.370;2022-10-22T03:39:50;99505.19;;;16.75;87.85
71239;BME280;61342;51.442;7.370;2022-10-22T03:40:50;99510.94;;;16.82;87.83
71239;BME280;61342;51.442;7.370;2022-10-22T03:41:52;99505.13;;;16.82;87.38
71239;BME280;61342;51.442;7.370;2022-10-22T03:42:52;99507.63;;;16.86;87.18
71239;BME280;61342;51.442;7.370;2022-10-22T03:43:53;99503.94;;;16.85;86.87
71239;BME280;61342;51.442;7.370;2022-10-22T03:44:53;99511.50;;;16.88;86.91
71239;BME280;61342;51.442;7.370;2022-10-22T03:45:54;99507.78;;;16.88;86.74
71239;BME280;61342;51.442;7.370;2022-10-22T03:46:54;99515.91;;;16.89;86.63
71239;BME280;61342;51.442;7.370;2022-10-22T03:47:54;99512.09;;;16.87;86.74
71239;BME280;61342;51.442;7.370;2022-10-22T03:48:55;99497.00;;;16.81;86.64
71239;BME280;61342;51.442;7.370;2022-10-22T03:49:55;99504.00;;;16.78;86.86
71239;BME280;61342;51.442;7.370;2022-10-22T03:50:55;99513.69;;;16.80;87.06
71239;BME280;61342;51.442;7.370;2022-10-22T03:51:56;99524.34;;;16.78;86.83
71239;BME280;61342;51.442;7.370;2022-10-22T03:52:56;99513.31;;;16.76;86.86
71239;BME280;61342;51.442;7.370;2022-10-22T03:53:57;99519.53;;;16.73;87.09
71239;BME280;61342;51.442;7.370;2022-10-22T03:54:57;99520.88;;;16.72;87.12
71239;BME280;61342;51.442;7.370;2022-10-22T03:55:58;99519.16;;;16.69;86.90
71239;BME280;61342;51.442;7.370;2022-10-22T03:56:58;99518.97;;;16.67;87.15
71239;BME280;61342;51.442;7.370;2022-10-22T03:57:59;99515.69;;;16.63;87.09
71239;BME280;61342;51.442;7.370;2022-10-22T03:59:01;99524.25;;;16.61;87.21
71239;BME280;61342;51.442;7.370;2022-10-22T04:00:04;99521.16;;;16.59;87.59
71239;BME280;61342;51.442;7.370;2022-10-22T04:01:09;99519.06;;;16.52;87.15
71239;BME280;61342;51.442;7.370;2022-10-22T04:02:11;99531.03;;;16.56;87.33
71239;BME280;61342;51.442;7.370;2022-10-22T04:03:12;99534.38;;;16.53;87.61
71239;BME280;61342;51.442;7.370;2022-10-22T04:04:12;99534.94;;;16.51;87.58
71239;BME280;61342;51.442;7.370;2022-10-22T04:05:13;99537.81;;;16.51;87.86
71239;BME280;61342;51.442;7.370;2022-10-22T04:06:13;99530.91;;;16.47;87.76
71239;BME280;61342;51.442;7.370;2022-10-22T04:07:14;99540.97;;;16.46;87.92
71239;BME280;61342;51.442;7.370;2022-10-22T04:08:14;99536.50;;;16.45;88.03
71239;BME280;61342;51.442;7.370;2022-10-22T04:09:14;99538.66;;;16.44;88.11
71239;BME280;61342;51.442;7.370;2022-10-22T04:10:15;99544.44;;;16.44;88.50
71239;BME280;61342;51.442;7.370;2022-10-22T04:11:15;99535.38;;;16.40;88.07
71239;BME280;61342;51.442;7.370;2022-10-22T04:12:16;99538.28;;;16.40;88.59
71239;BME280;61342;51.442;7.370;2022-10-22T04:13:17;99533.66;;;16.37;88.51
71239;BME280;61342;51.442;7.370;2022-10-22T04:14:17;99539.47;;;16.37;88.82
71239;BME280;61342;51.442;7.370;2022-10-22T04:15:18;99534.63;;;16.40;88.52
71239;BME280;61342;51.442;7.370;2022-10-22T04:16:20;99531.28;;;16.43;88.79
71239;BME280;61342;51.442;7.370;2022-10-22T04:17:21;99538.25;;;16.48;88.67
71239;BME280;61342;51.442;7.370;2022-10-22T04:18:22;99542.47;;;16.54;88.90
71239;BME280;61342;51.442;7.370;2022-10-22T04:19:22;99539.16;;;16.58;88.92
71239;BME280;61342;51.442;7.370;2022-10-22T04:20:23;99537.75;;;16.66;89.00
71239;BME280;61342;51.442;7.370;2022-10-22T04:21:23;99534.03;;;16.73;88.60
71239;BME280;61342;51.442;7.370;2022-10-22T04:22:24;99532.84;;;16.76;88.66
71239;BME280;61342;51.442;7.370;2022-10-22T04:23:24;99542.88;;;16.82;88.78
71239;BME280;61342;51.442;7.370;2022-10-22T04:24:24;99542.47;;;16.86;88.64
71239;BME280;61342;51.442;7.370;2022-10-22T04:25:25;99542.47;;;16.86;88.01
71239;BME280;61342;51.442;7.370;2022-10-22T04:26:25;99542.63;;;16.88;88.07
71239;BME280;61342;51.442;7.370;2022-10-22T04:27:33;99543.44;;;16.88;88.08
71239;BME280;61342;51.442;7.370;2022-10-22T04:28:34;99542.63;;;16.88;87.77
71239;BME280;61342;51.442;7.370;2022-10-22T04:29:34;99545.53;;;16.88;87.90
71239;BME280;61342;51.442;7.370;2022-10-22T04:30:35;99555.63;;;16.87;87.53
71239;BME280;61342;51.442;7.370;2022-10-22T04:31:35;99552.53;;;16.85;87.69
71239;BME280;61342;51.442;7.370;2022-10-22T04:32:36;99554.47;;;16.82;87.71
71239;BME280;61342;51.442;7.370;2022-10-22T04:33:37;99553.72;;;16.82;87.47
71239;BME280;61342;51.442;7.370;2022-10-22T04:34:37;99559.34;;;16.80;87.55
71239;BME280;61342;51.442;7.370;2022-10-22T04:35:38;99557.63;;;16.77;87.72
71239;BME280;61342;51.442;7.370;2022-10-22T04:36:39;99553.16;;;16.76;87.88
71239;BME280;61342;51.442;7.370;2022-10-22T04:37:39;99558.00;;;16.73;87.57
71239;BME280;61342;51.442;7.370;2022-10-22T04:38:41;99546.84;;;16.70;87.75
71239;BME280;61342;51.442;7.370;2022-10-22T04:39:41;99540.06;;;16.68;87.43
71239;BME280;61342;51.442;7.370;2022-10-22T04:40:42;99550.88;;;16.67;87.86
71239;BME280;61342;51.442;7.370;2022-10-22T04:41:42;99544.72;;;16.63;87.96
71239;BME280;61342;51.442;7.370;2022-10-22T04:42:43;99538.56;;;16.59;87.75
71239;BME280;61342;51.442;7.370;2022-10-22T04:43:44;99545.91;;;16.60;88.12
71239;BME280;61342;51.442;7.370;2022-10-22T04:44:44;99545.53;;;16.56;88.24
71239;BME280;61342;51.442;7.370;2022-10-22T04:45:45;99553.50;;;16.56;87.78
71239;BME280;61342;51.442;7.370;2022-10-22T04:46:45;99554.84;;;16.55;87.93
71239;BME280;61342;51.442;7.370;2022-10-22T04:47:46;99547.91;;;16.50;88.14
71239;BME280;61342;51.442;7.370;2022-10-22T04:48:46;99550.81;;;16.50;88.54
71239;BME280;61342;51.442;7.370;2022-10-22T04:49:46;99548.47;;;16.49;88.19
71239;BME280;61342;51.442;7.370;2022-10-22T04:50:47;99546.97;;;16.48;88.29
71239;BME280;61342;51.442;7.370;2022-10-22T04:51:47;99553.34;;;16.46;88.45
71239;BME280;61342;51.442;7.370;2022-10-22T04:52:47;99549.50;;;16.44;88.54
71239;BME280;61342;51.442;7.370;2022-10-22T04:53:49;99542.13;;;16.43;88.87
71239;BME280;61342;51.442;7.370;2022-10-22T04:54:49;99549.50;;;16.44;88.72
71239;BME280;61342;51.442;7.370;2022-10-22T04:55:49;99549.50;;;16.44;89.06
71239;BME280;61342;51.442;7.370;2022-10-22T04:56:50;99554.72;;;16.45;88.93
71239;BME280;61342;51.442;7.370;2022-10-22T04:57:50;99546.38;;;16.49;89.07
71239;BME280;61342;51.442;7.370;2022-10-22T04:59:02;99548.28;;;16.54;88.86
71239;BME280;61342;51.442;7.370;2022-10-22T05:00:04;99550.38;;;16.61;89.18
71239;BME280;61342;51.442;7.370;2022-10-22T05:01:18;99553.63;;;16.65;88.89
71239;BME280;61342;51.442;7.370;2022-10-22T05:02:19;99546.84;;;16.70;88.95
71239;BME280;61342;51.442;7.370;2022-10-22T05:03:19;99551.06;;;16.76;88.86
71239;BME280;61342;51.442;7.370;2022-10-22T05:04:19;99557.03;;;16.78;88.52
71239;BME280;61342;51.442;7.370;2022-10-22T05:05:20;99553.53;;;16.80;88.32
71239;BME280;61342;51.442;7.370;2022-10-22T05:06:21;99543.47;;;16.81;88.38
71239;BME280;61342;51.442;7.370;2022-10-22T05:07:22;99550.03;;;16.81;87.90
71239;BME280;61342;51.442;7.370;2022-10-22T05:08:22;99556.63;;;16.82;87.78
71239;BME280;61342;51.442;7.370;2022-10-22T05:09:23;99557.97;;;16.81;87.68
71239;BME280;61342;51.442;7.370;2022-10-22T05:10:23;99563.63;;;16.79;87.69
71239;BME280;61342;51.442;7.370;2022-10-22T05:11:26;99562.06;;;16.78;87.89
71239;BME280;61342;51.442;7.370;2022-10-22T05:12:27;99566.31;;;16.77;87.47
71239;BME280;61342;51.442;7.370;2022-10-22T05:13:28;99566.72;;;16.73;87.86
71239;BME280;61342;51.442;7.370;2022-10-22T05:14:29;99576.03;;;16.72;87.64
71239;BME280;61342;51.442;7.370;2022-10-22T05:15:29;99567.16;;;16.70;87.83
71239;BME280;61342;51.442;7.370;2022-10-22T05:16:30;99565.41;;;16.67;87.90
71239;BME280;61342;51.442;7.370;2022-10-22T05:17:34;99567.38;;;16.65;87.51
71239;BME280;61342;51.442;7.370;2022-10-22T05:18:36;99569.31;;;16.62;87.82
71239;BME280;61342;51.442;7.370;2022-10-22T05:19:37;99574.19;;;16.60;87.86
71239;BME280;61342;51.442;7.370;2022-10-22T05:20:40;99571.66;;;16.56;88.11
71239;BME280;61342;51.442;7.370;2022-10-22T05:21:41;99567.22;;;16.55;87.68
71239;BME280;61342;51.442;7.370;2022-10-22T05:22:41;99563.94;;;16.51;87.99
71239;BME280;61342;51.442;7.370;2022-10-22T05:23:42;99570.53;;;16.52;88.08
71239;BME280;61342;51.442;7.370;2022-10-22T05:24:43;99568.78;;;16.49;88.02
71239;BME280;61342;51.442;7.370;2022-10-22T05:25:43;99573.84;;;16.48;88.01
71239;BME280;61342;51.442;7.370;2022-10-22T05:26:44;99573.66;;;16.46;88.53
71239;BME280;61342;51.442;7.370;2022-10-22T05:27:48;99574.66;;;16.41;88.40
71239;BME280;61342;51.442;7.370;2022-10-22T05:28:49;99581.22;;;16.42;88.63
71239;BME280;61342;51.442;7.370;2022-10-22T05:29:49;99578.13;;;16.40;88.59
71239;BME280;61342;51.442;7.370;2022-10-22T05:30:54;99580.09;;;16.37;88.47
71239;BME280;61342;51.442;7.370;2022-10-22T05:31:54;99596.13;;;16.38;88.92
71239;BME280;61342;51.442;7.370;2022-10-22T05:32:55;99584.34;;;16.36;88.63
71239;BME280;61342;51.442;7.370;2022-10-22T05:33:55;99588.41;;;16.33;88.60
71239;BME280;61342;51.442;7.370;2022-10-22T05:34:55;99579.72;;;16.33;88.83
71239;BME280;61342;51.442;7.370;2022-10-22T05:35:56;99585.50;;;16.33;89.27
71239;BME280;61342;51.442;7.370;2022-10-22T05:36:56;99586.28;;;16.34;89.10
71239;BME280;61342;51.442;7.370;2022-10-22T05:37:57;99585.50;;;16.33;89.59
71239;BME280;61342;51.442;7.370;2022-10-22T05:38:57;99594.59;;;16.37;89.45
71239;BME280;61342;51.442;7.370;2022-10-22T05:39:57;99599.22;;;16.40;89.17
71239;BME280;61342;51.442;7.370;2022-10-22T05:41:08;99596.88;;;16.46;89.47
71239;BME280;61342;51.442;7.370;2022-10-22T05:42:09;99598.97;;;16.53;89.72
71239;BME280;61342;51.442;7.370;2022-10-22T05:43:10;99597.97;;;16.58;89.21
71239;BME280;61342;51.442;7.370;2022-10-22T05:44:11;99597.94;;;16.66;88.93
71239;BME280;61342;51.442;7.370;2022-10-22T05:45:12;99600.44;;;16.69;89.03
71239;BME280;61342;51.442;7.370;2022-10-22T05:46:15;99591.13;;;16.71;88.59
71239;BME280;61342;51.442;7.370;2022-10-22T05:47:15;99600.22;;;16.74;88.89
71239;BME280;61342;51.442;7.370;2022-10-22T05:48:16;99597.31;;;16.74;88.32
71239;BME280;61342;51.442;7.370;2022-10-22T05:49:16;99601.56;;;16.73;88.41
71239;BME280;61342;51.442;7.370;2022-10-22T05:50:16;99601.00;;;16.75;88.30
71239;BME280;61342;51.442;7.370;2022-10-22T05:51:17;99589.19;;;16.73;87.94
71239;BME280;61342;51.442;7.370;2022-10-22T05:52:18;99586.88;;;16.72;87.87
71239;BME280;61342;51.442;7.370;2022-10-22T05:53:18;99590.38;;;16.70;87.73
71239;BME280;61342;51.442;7.370;2022-10-22T05:54:19;99596.56;;;16.67;88.15
71239;BME280;61342;51.442;7.370;2022-10-22T05:55:21;99600.81;;;16.66;87.99
71239;BME280;61342;51.442;7.370;2022-10-22T05:56:23;99603.38;;;16.62;88.07